SBRB/RBR METAR and TAF weather

Enter ICAO airport designator
Station Type Date Time Source
SBRB METAR 2021/01/17 19:00 UTC NOAA

SBRB 171900Z 33004KT 260V020 9999 BKN030 FEW035TCU 32/25 Q1006


Station Type Date Time Source
SBRB Decoded METAR 2021/01/17 19:00 UTC NOAA

Rio Branco, Brazil (SBRB) 10-00S 067-48W 143M
Jan 17, 2021 - 02:00 PM EST / 2021.01.17 1900 UTC
Wind: from the NNW (330 degrees) at 5 MPH (4 KT) (direction variable):0
Visibility: greater than 7 mile(s):0
Sky conditions: mostly cloudy
Weather: Towering cumulus clouds observed
Temperature: 89 F (32 C)
Heat index: 100.6 F (38.1 C):1
Dew Point: 77 F (25 C)
Relative Humidity: 66%
Pressure (altimeter): 29.71 in. Hg (1006 hPa)
ob: SBRB 171900Z 33004KT 260V020 9999 BKN030 FEW035TCU 32/25 Q1006
cycle: 19

Station Type Date Time Source
SBRB TAF 2021/01/17 18:51 UTC NOAA

TAF SBRB 171440Z 1718/1806 33005KT 8000 SCT015 FEW030TCU TX29/1718Z TN24/1806Z PROB40 1718/1721 6000 SCT015
BECMG 1800/1802 FEW020
RMK PGZ

Example: see airport list